Time;durP1;ratioP1;P1;durP2;ratioP2;P2;SDS_P1;SDS_P2;PMS_P1;PMS_P2;Temp;Humidity;BMP_temperature;BMP_pressure;BME280_temperature;BME280_humidity;BME280_pressure;Samples;Min_cycle;Max_cycle;Signal;HPM_P1;HPM_P2
2023/03/14 00:00:26;;;;;;;6.50;5.40;;;;;;;3.68;67.58;99625.48;106992;1257;71042;-74
2023/03/14 00:02:53;;;;;;;8.50;5.10;;;;;;;3.67;67.38;99617.75;106988;1253;73660;-75
2023/03/14 00:05:20;;;;;;;7.40;5.20;;;;;;;3.66;67.58;99614.87;107383;1254;60440;-74
2023/03/14 00:07:46;;;;;;;7.10;4.80;;;;;;;3.72;67.72;99614.30;107334;1252;60190;-75
2023/03/14 00:10:17;;;;;;;5.80;4.70;;;;;;;3.82;67.52;99617.23;107769;1251;74801;-77
2023/03/14 00:12:44;;;;;;;7.70;4.60;;;;;;;3.80;67.40;99608.95;108312;1251;68436;-73
2023/03/14 00:15:12;;;;;;;9.30;5.40;;;;;;;3.77;67.63;99607.98;108226;1256;71616;-76
2023/03/14 00:17:44;;;;;;;7.00;4.80;;;;;;;3.73;67.67;99601.29;109411;1253;60454;-79
2023/03/14 00:20:12;;;;;;;6.40;4.90;;;;;;;3.71;68.03;99599.35;107996;1253;60302;-75
2023/03/14 00:22:42;;;;;;;8.50;4.90;;;;;;;3.68;67.98;99612.39;108443;1251;73605;-73
2023/03/14 00:25:09;;;;;;;7.40;4.70;;;;;;;3.65;68.15;99598.25;109166;1251;70326;-74
2023/03/14 00:27:37;;;;;;;8.00;4.70;;;;;;;3.62;68.25;99598.85;109561;1251;70653;-75
2023/03/14 00:30:07;;;;;;;6.60;5.40;;;;;;;3.59;68.62;99590.73;109212;1253;59328;-77
2023/03/14 00:32:36;;;;;;;12.80;6.10;;;;;;;3.58;68.62;99586.97;109590;1251;58776;-76
2023/03/14 00:35:04;;;;;;;9.50;5.20;;;;;;;3.56;68.63;99589.54;109458;1253;73853;-78
2023/03/14 00:37:31;;;;;;;6.60;5.00;;;;;;;3.55;68.54;99583.85;109588;1251;70227;-78
2023/03/14 00:39:58;;;;;;;9.70;4.80;;;;;;;3.61;68.77;99582.50;109542;1253;72384;-81
2023/03/14 00:42:25;;;;;;;8.40;5.80;;;;;;;3.71;68.38;99578.80;109675;1253;59330;-80
2023/03/14 00:44:55;;;;;;;6.50;5.20;;;;;;;3.72;68.06;99570.20;109063;1252;60480;-76
2023/03/14 00:47:23;;;;;;;8.10;5.20;;;;;;;3.70;68.29;99571.57;109010;1253;73707;-75
2023/03/14 00:49:50;;;;;;;7.90;6.20;;;;;;;3.68;68.06;99571.61;108585;1252;69352;-76
2023/03/14 00:52:18;;;;;;;8.70;5.60;;;;;;;3.65;68.19;99572.17;107723;1254;71671;-75
2023/03/14 00:54:45;;;;;;;7.90;5.30;;;;;;;3.61;68.43;99552.39;108020;1252;60500;-74
2023/03/14 00:57:12;;;;;;;7.50;5.40;;;;;;;3.57;68.26;99553.73;108152;1254;60243;-74
2023/03/14 00:59:43;;;;;;;8.00;5.50;;;;;;;3.53;68.59;99548.15;108094;1250;73899;-75
2023/03/14 01:02:10;;;;;;;7.70;5.50;;;;;;;3.50;68.44;99547.87;108244;1254;71254;-73
2023/03/14 01:04:39;;;;;;;7.10;5.50;;;;;;;3.45;68.74;99544.54;108275;1252;72788;-77
2023/03/14 01:07:05;;;;;;;8.90;5.60;;;;;;;3.41;68.81;99546.29;107596;1254;60494;-75
2023/03/14 01:09:32;;;;;;;7.50;5.60;;;;;;;3.37;69.01;99543.85;107261;1253;59745;-75
2023/03/14 01:12:04;;;;;;;6.70;4.80;;;;;;;3.33;68.88;99541.50;108358;1254;73434;-75
2023/03/14 01:14:33;;;;;;;7.30;4.80;;;;;;;3.43;68.64;99543.15;108099;1251;71788;-74
2023/03/14 01:17:01;;;;;;;7.60;5.50;;;;;;;3.44;68.67;99542.36;107839;1252;70558;-72
2023/03/14 01:19:40;;;;;;;9.40;5.00;;;;;;;3.39;68.54;99545.42;109661;1251;58400;-73
2023/03/14 01:22:06;;;;;;;7.70;5.10;;;;;;;3.37;68.75;99548.91;109221;1253;60408;-74
2023/03/14 01:24:33;;;;;;;8.70;5.50;;;;;;;3.33;68.83;99546.05;108424;1254;71933;-73
2023/03/14 01:27:02;;;;;;;7.80;4.70;;;;;;;3.30;68.82;99553.55;108004;1256;70035;-75
2023/03/14 01:29:29;;;;;;;7.50;4.70;;;;;;;3.26;68.90;99558.77;108473;1254;72589;-76
2023/03/14 01:31:56;;;;;;;6.70;4.30;;;;;;;3.22;68.97;99559.08;108649;1252;60431;-75
2023/03/14 01:34:23;;;;;;;10.50;5.70;;;;;;;3.19;69.13;99561.45;108308;1252;60437;-74
2023/03/14 01:36:51;;;;;;;6.90;4.40;;;;;;;3.16;69.35;99561.14;108019;1254;73833;-76
2023/03/14 01:39:19;;;;;;;8.00;5.50;;;;;;;3.24;69.12;99557.37;107798;1251;68963;-75
2023/03/14 01:41:46;;;;;;;7.30;4.70;;;;;;;3.25;68.95;99549.42;108505;1251;71662;-75
2023/03/14 01:44:15;;;;;;;5.90;4.90;;;;;;;3.20;69.18;99542.80;109466;1251;58023;-77
2023/03/14 01:46:48;;;;;;;7.70;5.00;;;;;;;3.15;69.24;99543.56;109476;1251;60146;-81
2023/03/14 01:49:27;;;;;;;6.80;4.80;;;;;;;3.10;69.56;99545.35;109205;1252;72804;-75
2023/03/14 01:52:03;;;;;;;7.20;4.90;;;;;;;3.04;69.71;99542.90;109078;1256;70368;-73
2023/03/14 01:54:37;;;;;;;9.10;5.10;;;;;;;2.98;69.78;99536.90;108114;1251;72777;-73
2023/03/14 01:57:18;;;;;;;6.50;5.10;;;;;;;2.92;70.07;99538.38;107646;1256;60415;-76
2023/03/14 02:00:00;;;;;;;8.50;4.70;;;;;;;2.93;70.27;99545.11;109043;1252;60530;-78
2023/03/14 02:02:32;;;;;;;5.80;4.50;;;;;;;3.00;69.89;99528.19;108836;1255;72341;-77
2023/03/14 02:04:59;;;;;;;8.00;5.00;;;;;;;2.95;69.91;99521.19;108613;1255;68751;-77
2023/03/14 02:07:51;;;;;;;6.90;5.00;;;;;;;2.89;70.24;99529.20;109090;1253;71351;-77
2023/03/14 02:10:24;;;;;;;7.30;4.70;;;;;;;2.83;70.45;99531.27;109467;1252;57978;-74
2023/03/14 02:12:50;;;;;;;7.70;5.00;;;;;;;2.78;70.62;99537.77;109361;1251;60316;-79
2023/03/14 02:15:32;;;;;;;5.90;4.70;;;;;;;2.73;70.80;99542.34;108368;1254;73792;-77
2023/03/14 02:18:05;;;;;;;10.70;4.80;;;;;;;2.78;70.79;99536.70;109148;1253;70566;-75
2023/03/14 02:21:01;;;;;;;6.70;4.40;;;;;;;2.82;70.75;99544.33;109636;1251;70714;-76
2023/03/14 02:23:48;;;;;;;6.30;4.50;;;;;;;2.77;70.86;99540.33;108260;1251;59539;-75
2023/03/14 02:26:23;;;;;;;7.00;5.30;;;;;;;2.71;70.83;99540.64;107807;1256;60384;-76
2023/03/14 02:28:53;;;;;;;7.20;4.70;;;;;;;2.64;71.20;99539.42;107581;1251;73874;-76
2023/03/14 02:31:21;;;;;;;7.00;4.90;;;;;;;2.60;71.62;99547.46;108403;1251;71100;-76
2023/03/14 02:33:49;;;;;;;7.60;4.50;;;;;;;2.56;71.71;99543.55;107964;1252;71568;-76
2023/03/14 02:36:16;;;;;;;6.20;4.40;;;;;;;2.65;71.40;99546.52;108023;1251;60480;-76
2023/03/14 02:38:46;;;;;;;9.00;4.90;;;;;;;2.65;71.27;99560.52;108013;1253;60718;-75
2023/03/14 02:41:14;;;;;;;6.40;4.50;;;;;;;2.58;71.58;99539.04;108224;1254;73519;-75
2023/03/14 02:43:50;;;;;;;7.50;4.80;;;;;;;2.52;71.65;99552.40;107731;1252;69286;-76
2023/03/14 02:46:19;;;;;;;5.40;4.80;;;;;;;2.46;71.80;99551.84;107674;1254;72146;-76
2023/03/14 02:48:56;;;;;;;7.20;4.60;;;;;;;2.42;72.07;99550.27;107248;1254;60418;-74
2023/03/14 02:51:23;;;;;;;8.00;4.70;;;;;;;2.37;72.14;99556.97;108040;1252;60559;-75
2023/03/14 02:53:51;;;;;;;6.20;4.20;;;;;;;2.41;72.19;99555.09;108104;1256;72612;-76
2023/03/14 02:56:18;;;;;;;7.90;4.90;;;;;;;2.46;71.96;99563.05;107845;1254;69397;-77
2023/03/14 02:58:46;;;;;;;7.10;4.70;;;;;;;2.41;71.94;99565.86;107884;1251;72591;-75
2023/03/14 03:01:33;;;;;;;8.90;4.80;;;;;;;2.36;72.00;99553.19;108355;1251;60378;-76
2023/03/14 03:04:00;;;;;;;7.90;5.00;;;;;;;2.32;72.04;99562.77;108134;1256;60332;-76
2023/03/14 03:06:27;;;;;;;7.70;5.00;;;;;;;2.26;72.48;99570.20;107684;1254;72727;-75
2023/03/14 03:08:54;;;;;;;6.00;4.40;;;;;;;2.22;72.56;99578.54;107496;1254;69597;-76
2023/03/14 03:11:21;;;;;;;5.70;4.00;;;;;;;2.28;72.45;99572.46;109516;1251;72467;-78
2023/03/14 03:13:48;;;;;;;6.70;5.00;;;;;;;2.30;72.17;99574.95;109542;1251;60430;-78
2023/03/14 03:16:15;;;;;;;8.80;4.40;;;;;;;2.24;72.39;99559.67;108840;1251;61273;-79
2023/03/14 03:18:43;;;;;;;6.50;4.60;;;;;;;2.19;72.42;99558.89;108762;1251;72413;-78
2023/03/14 03:21:10;;;;;;;7.40;5.10;;;;;;;2.12;72.47;99554.48;108470;1253;68613;-76
2023/03/14 03:23:38;;;;;;;6.30;4.90;;;;;;;2.07;72.63;99555.77;107876;1252;70414;-76
2023/03/14 03:26:05;;;;;;;6.80;4.00;;;;;;;2.08;72.62;99550.97;107630;1251;62143;-75
2023/03/14 03:28:32;;;;;;;7.90;4.70;;;;;;;2.14;72.47;99537.90;107723;1251;60198;-76
2023/03/14 03:31:06;;;;;;;6.50;5.20;;;;;;;2.10;72.36;99542.44;107808;1252;71878;-73
2023/03/14 03:33:36;;;;;;;7.20;4.50;;;;;;;2.03;72.43;99542.80;107693;1256;70320;-75
2023/03/14 03:36:04;;;;;;;7.40;5.30;;;;;;;1.95;72.51;99554.08;107610;1257;73689;-73
2023/03/14 03:38:34;;;;;;;7.20;4.70;;;;;;;1.90;72.56;99535.08;107891;1251;59088;-74
2023/03/14 03:41:04;;;;;;;9.60;5.00;;;;;;;1.84;72.44;99534.10;108093;1252;61213;-74
2023/03/14 03:43:31;;;;;;;8.60;5.10;;;;;;;1.89;72.28;99538.27;107656;1252;73396;-74
2023/03/14 03:46:04;;;;;;;7.60;5.10;;;;;;;1.92;71.94;99550.13;108072;1252;69415;-73
2023/03/14 03:48:35;;;;;;;7.10;5.40;;;;;;;1.87;71.75;99541.08;108236;1253;73811;-76
2023/03/14 03:51:05;;;;;;;9.90;5.10;;;;;;;1.83;71.86;99526.38;108272;1252;60346;-74
2023/03/14 03:53:32;;;;;;;6.90;4.80;;;;;;;1.78;71.71;99524.77;107784;1251;60411;-74
2023/03/14 03:56:09;;;;;;;8.10;5.70;;;;;;;1.74;71.65;99519.34;108081;1256;73879;-75
2023/03/14 03:58:38;;;;;;;6.80;4.90;;;;;;;1.71;71.56;99521.62;107843;1251;69663;-75
2023/03/14 04:01:08;;;;;;;8.30;4.70;;;;;;;1.81;71.25;99530.38;108877;1251;72658;-77
2023/03/14 04:03:35;;;;;;;5.80;4.80;;;;;;;1.83;71.05;99532.86;109544;1251;59236;-75
2023/03/14 04:06:04;;;;;;;8.30;5.40;;;;;;;1.79;70.96;99530.34;109473;1252;60248;-72
2023/03/14 04:08:33;;;;;;;7.90;6.00;;;;;;;1.75;70.65;99547.19;108379;1251;74029;-72
2023/03/14 04:11:04;;;;;;;6.70;5.50;;;;;;;1.72;70.56;99529.41;107888;1254;68746;-74
2023/03/14 04:13:51;;;;;;;10.10;5.60;;;;;;;1.69;70.78;99517.24;106694;1254;72493;-74
2023/03/14 04:16:23;;;;;;;6.80;5.40;;;;;;;1.65;70.68;99527.02;106483;1256;60568;-72
2023/03/14 04:18:56;;;;;;;5.90;4.60;;;;;;;1.64;70.57;99525.02;107621;1254;60489;-71
2023/03/14 04:21:24;;;;;;;9.20;4.70;;;;;;;1.75;70.24;99530.46;107202;1254;74631;-72
2023/03/14 04:23:56;;;;;;;7.00;4.80;;;;;;;1.75;70.07;99533.77;108926;1251;70412;-72
2023/03/14 04:26:24;;;;;;;6.70;5.10;;;;;;;1.71;69.96;99534.21;107437;1254;71485;-74
2023/03/14 04:28:51;;;;;;;6.50;5.10;;;;;;;1.68;69.86;99543.00;108175;1252;59834;-74
2023/03/14 04:31:22;;;;;;;9.70;5.60;;;;;;;1.65;69.72;99533.11;108651;1253;60367;-76
2023/03/14 04:33:51;;;;;;;8.50;5.10;;;;;;;1.64;69.82;99533.20;108550;1254;72086;-75
2023/03/14 04:36:24;;;;;;;6.30;4.60;;;;;;;1.62;69.66;99535.41;108282;1251;70258;-74
2023/03/14 04:38:51;;;;;;;9.50;4.60;;;;;;;1.61;69.82;99523.81;108271;1251;71089;-76
2023/03/14 04:41:20;;;;;;;7.00;5.10;;;;;;;1.64;69.75;99519.54;108152;1252;60079;-77
2023/03/14 04:43:48;;;;;;;7.10;4.60;;;;;;;1.75;69.46;99515.02;108365;1254;60627;-75
2023/03/14 04:46:17;;;;;;;6.30;4.80;;;;;;;1.75;69.20;99518.73;106997;1252;74710;-74
2023/03/14 04:48:49;;;;;;;8.60;4.80;;;;;;;1.74;69.35;99504.17;109576;1251;69561;-75
2023/03/14 04:51:18;;;;;;;6.40;4.60;;;;;;;1.72;69.39;99501.32;109383;1251;72703;-76
2023/03/14 04:53:45;;;;;;;4.40;4.00;;;;;;;1.72;69.42;99513.20;108108;1254;60545;-75
2023/03/14 04:56:17;;;;;;;7.10;4.70;;;;;;;1.72;69.17;99507.77;109433;1252;58610;-75
2023/03/14 04:58:45;;;;;;;6.80;5.40;;;;;;;1.73;69.08;99500.52;109389;1253;73898;-78
2023/03/14 05:01:15;;;;;;;8.00;6.00;;;;;;;1.75;69.04;99488.48;108153;1254;70111;-73
2023/03/14 05:04:00;;;;;;;8.10;5.40;;;;;;;1.78;69.31;99485.70;107802;1254;71006;-76
2023/03/14 05:06:47;;;;;;;7.30;4.90;;;;;;;1.80;68.85;99486.55;107825;1251;60424;-75
2023/03/14 05:09:32;;;;;;;9.90;5.20;;;;;;;1.83;68.98;99491.09;108061;1253;60451;-73
2023/03/14 05:12:33;;;;;;;7.40;4.30;;;;;;;1.97;68.84;99494.13;107883;1251;72610;-74
2023/03/14 05:15:19;;;;;;;7.00;4.90;;;;;;;2.08;68.41;99492.77;107814;1255;68348;-73
2023/03/14 05:18:05;;;;;;;7.30;5.20;;;;;;;2.09;68.31;99491.83;107386;1254;73451;-75
2023/03/14 05:20:56;;;;;;;8.70;5.40;;;;;;;2.09;68.33;99483.96;107470;1252;60876;-74
2023/03/14 05:23:42;;;;;;;9.00;5.50;;;;;;;2.11;68.34;99482.94;108044;1253;60284;-75
2023/03/14 05:26:30;;;;;;;7.20;5.10;;;;;;;2.16;68.20;99496.20;108910;1254;73815;-73
2023/03/14 05:29:14;;;;;;;8.10;4.90;;;;;;;2.23;68.34;99487.78;107547;1253;71681;-75
2023/03/14 05:32:02;;;;;;;9.70;5.10;;;;;;;2.32;67.91;99493.70;108604;1251;72719;-75
2023/03/14 05:34:49;;;;;;;9.10;5.40;;;;;;;2.42;67.61;99503.61;108034;1251;60383;-76
2023/03/14 05:37:49;;;;;;;10.30;4.80;;;;;;;2.52;67.25;99504.02;108329;1251;60414;-77
2023/03/14 05:40:35;;;;;;;7.10;5.20;;;;;;;2.62;67.03;99509.91;108518;1252;73656;-80
2023/03/14 05:43:08;;;;;;;10.40;5.40;;;;;;;2.70;66.76;99500.44;108094;1251;68355;-79
2023/03/14 05:45:37;;;;;;;8.60;4.70;;;;;;;2.80;66.69;99515.78;108237;1253;71503;-80
2023/03/14 05:48:24;;;;;;;12.70;5.00;;;;;;;2.90;66.37;99523.33;109343;1254;58610;-79
2023/03/14 05:51:09;;;;;;;6.00;4.20;;;;;;;3.01;66.16;99526.67;109581;1253;58225;-79
2023/03/14 05:54:02;;;;;;;7.00;4.50;;;;;;;3.13;65.72;99539.66;108440;1254;73653;-80
2023/03/14 05:56:41;;;;;;;8.10;4.40;;;;;;;3.25;65.54;99543.21;108732;1256;70316;-77
2023/03/14 05:59:16;;;;;;;6.80;4.20;;;;;;;3.34;65.21;99545.47;108069;1251;72808;-78
2023/03/14 06:02:13;;;;;;;6.70;4.20;;;;;;;3.39;65.28;99551.96;107775;1251;60581;-81
2023/03/14 06:04:46;;;;;;;6.10;4.30;;;;;;;3.40;64.93;99544.66;107376;1251;231061;-83
2023/03/14 06:08:16;;;;;;;11.10;4.60;;;;;;;3.44;65.06;99530.82;104064;1291;616749;-82
2023/03/14 06:10:46;;;;;;;5.90;4.30;;;;;;;3.45;64.99;99539.37;106563;1271;59196;-80
2023/03/14 06:13:15;;;;;;;7.60;4.70;;;;;;;3.44;64.85;99553.27;106610;1266;61350;-81
2023/03/14 06:15:43;;;;;;;10.50;5.10;;;;;;;3.44;64.87;99542.60;106717;1265;72352;-79
2023/03/14 06:18:12;;;;;;;5.80;4.40;;;;;;;3.46;64.86;99540.46;106792;1271;70402;-80
2023/03/14 06:20:39;;;;;;;8.20;4.70;;;;;;;3.48;64.91;99535.55;107877;1253;163392;-82
2023/03/14 06:23:08;;;;;;;7.60;4.90;;;;;;;3.51;64.81;99546.50;107153;1260;59107;-80
2023/03/14 06:25:35;;;;;;;6.20;4.40;;;;;;;3.55;64.61;99536.42;107162;1254;60107;-80
2023/03/14 06:28:01;;;;;;;6.70;4.90;;;;;;;3.59;64.53;99541.54;106784;1258;71274;-78
2023/03/14 06:30:28;;;;;;;8.80;5.20;;;;;;;3.62;64.46;99552.11;108028;1254;69734;-76
2023/03/14 06:32:57;;;;;;;9.30;4.40;;;;;;;3.66;64.24;99560.31;106999;1256;71599;-81
2023/03/14 06:35:24;;;;;;;8.10;4.70;;;;;;;3.68;64.28;99555.08;106228;1259;60316;-81
2023/03/14 06:37:52;;;;;;;8.70;4.40;;;;;;;3.68;63.93;99547.55;107847;1252;61370;-81
2023/03/14 06:40:19;;;;;;;7.50;5.30;;;;;;;3.68;63.96;99532.13;109342;1253;72698;-80
2023/03/14 06:43:06;;;;;;;5.30;4.70;;;;;;;3.71;64.17;99532.64;108080;1255;70011;-79
2023/03/14 06:45:35;;;;;;;7.50;4.80;;;;;;;3.73;63.90;99530.48;108475;1253;72637;-81
2023/03/14 06:48:06;;;;;;;9.10;4.80;;;;;;;3.78;63.71;99522.80;107833;1253;59240;-82
2023/03/14 06:50:40;;;;;;;10.40;5.00;;;;;;;3.81;63.58;99529.21;106403;1254;60478;-80
2023/03/14 06:53:10;;;;;;;7.10;5.00;;;;;;;3.81;63.23;99515.84;106187;1257;72667;-83
2023/03/14 06:55:39;;;;;;;7.30;4.60;;;;;;;3.81;63.64;99496.07;106122;1258;71556;-80
2023/03/14 06:58:07;;;;;;;6.30;4.90;;;;;;;3.81;63.50;99490.84;106055;1258;70367;-83
2023/03/14 07:00:39;;;;;;;7.90;4.90;;;;;;;3.81;63.68;99498.16;106091;1254;59920;-77
2023/03/14 07:03:06;;;;;;;8.10;5.10;;;;;;;3.82;63.45;99477.87;107013;1253;61324;-81
2023/03/14 07:05:40;;;;;;;12.10;5.40;;;;;;;3.85;63.36;99478.89;106250;1253;72678;-81
2023/03/14 07:08:08;;;;;;;8.30;5.30;;;;;;;3.89;63.51;99461.86;105765;1253;71381;-76
2023/03/14 07:10:35;;;;;;;6.80;4.30;;;;;;;3.92;63.45;99473.86;105882;1258;73645;-80
2023/03/14 07:13:11;;;;;;;11.30;4.90;;;;;;;3.98;62.97;99478.16;105848;1253;60780;-76
2023/03/14 07:15:48;;;;;;;9.40;5.20;;;;;;;4.07;62.89;99491.20;106211;1253;59653;-81
2023/03/14 07:18:16;;;;;;;7.70;4.60;;;;;;;4.15;63.02;99459.29;106117;1258;72004;-82
2023/03/14 07:20:45;;;;;;;7.80;5.00;;;;;;;4.24;63.15;99457.64;106446;1256;71224;-79
2023/03/14 07:23:13;;;;;;;7.70;4.90;;;;;;;4.33;62.73;99470.30;108447;1254;73827;-86
2023/03/14 07:25:46;;;;;;;5.10;4.10;;;;;;;4.44;62.38;99480.23;108728;1253;59653;-86
2023/03/14 07:28:14;;;;;;;9.30;5.50;;;;;;;4.52;62.11;99470.04;107683;1252;59843;-89
2023/03/14 07:30:47;;;;;;;7.20;4.60;;;;;;;4.62;61.80;99487.13;107549;1253;74340;-88
2023/03/14 07:33:23;;;;;;;8.30;5.10;;;;;;;4.70;61.37;99505.66;109226;1255;69202;-89
2023/03/14 07:35:52;;;;;;;7.50;4.50;;;;;;;4.78;60.97;99470.71;109270;1256;72540;-89
2023/03/14 07:38:24;;;;;;;6.30;4.30;;;;;;;4.82;61.00;99468.51;109111;1256;58376;-89
2023/03/14 07:41:05;;;;;;;7.50;4.60;;;;;;;4.96;60.59;99476.34;109086;1259;61974;-88
2023/03/14 07:43:33;;;;;;;6.90;4.70;;;;;;;5.03;60.35;99468.20;107555;1254;73094;-80
2023/03/14 07:46:01;;;;;;;8.20;5.30;;;;;;;5.11;60.45;99466.17;106910;1254;71489;-83
2023/03/14 07:48:37;;;;;;;7.90;4.80;;;;;;;5.21;60.05;99454.42;108402;1255;73427;-89
2023/03/14 07:51:13;;;;;;;6.70;4.70;;;;;;;5.34;60.08;99473.22;109071;1256;59197;-87
2023/03/14 07:54:34;;;;;;;10.00;5.20;;;;;;;5.51;59.66;99469.05;107659;1256;59516;-88
2023/03/14 07:57:14;;;;;;;6.90;5.30;;;;;;;5.64;59.10;99466.27;107924;1256;72153;-88
2023/03/14 07:59:47;;;;;;;7.70;5.50;;;;;;;5.79;58.70;99482.76;108768;1256;70267;-80
2023/03/14 08:02:15;;;;;;;6.60;4.80;;;;;;;5.90;58.69;99471.56;107779;1256;71081;-88
2023/03/14 08:04:44;;;;;;;10.70;5.40;;;;;;;6.01;58.99;99451.02;107617;1256;59679;-84
2023/03/14 08:07:11;;;;;;;8.20;5.10;;;;;;;6.14;58.27;99477.81;105937;1257;60362;-81
2023/03/14 08:09:38;;;;;;;7.50;4.90;;;;;;;6.25;57.96;99471.05;105838;1259;73843;-79
2023/03/14 08:12:06;;;;;;;9.80;5.40;;;;;;;6.35;57.74;99463.84;105592;1257;71155;-77
2023/03/14 08:14:34;;;;;;;7.50;5.30;;;;;;;6.44;57.64;99460.09;105640;1262;71571;-78
2023/03/14 08:17:08;;;;;;;7.90;4.90;;;;;;;6.55;57.12;99475.94;105721;1257;60838;-80
2023/03/14 08:19:37;;;;;;;13.30;5.90;;;;;;;6.65;57.13;99461.23;105902;1256;60499;-80
2023/03/14 08:22:04;;;;;;;8.40;5.60;;;;;;;6.77;57.03;99443.87;106395;1263;73967;-80
2023/03/14 08:24:32;;;;;;;7.30;5.40;;;;;;;6.91;56.52;99444.46;106754;1255;70294;-78
2023/03/14 08:27:00;;;;;;;9.00;5.50;;;;;;;7.08;56.72;99466.77;109060;1256;72460;-78
2023/03/14 08:29:27;;;;;;;9.20;4.90;;;;;;;7.22;55.93;99461.83;108445;1256;57863;-76
2023/03/14 08:31:54;;;;;;;7.70;5.70;;;;;;;7.36;55.40;99467.17;107359;1255;61393;-79
2023/03/14 08:34:21;;;;;;;7.30;5.10;;;;;;;7.47;55.36;99466.18;108672;1256;72037;-80
2023/03/14 08:36:49;;;;;;;7.80;5.60;;;;;;;7.59;54.61;99461.39;106148;1257;70404;-81
2023/03/14 08:39:15;;;;;;;9.20;5.80;;;;;;;7.67;54.65;99453.38;105811;1261;72805;-81
2023/03/14 08:41:44;;;;;;;10.20;5.70;;;;;;;7.77;54.68;99430.19;105775;1256;59659;-81
2023/03/14 08:44:12;;;;;;;7.90;5.10;;;;;;;7.90;54.29;99459.36;105883;1257;61423;-81
2023/03/14 08:46:40;;;;;;;9.30;5.40;;;;;;;8.02;53.71;99478.75;105955;1258;71625;-77
2023/03/14 08:49:10;;;;;;;6.10;4.60;;;;;;;8.10;53.32;99485.21;106224;1256;72518;-82
2023/03/14 08:51:38;;;;;;;6.70;4.40;;;;;;;8.19;53.19;99462.59;106676;1258;72876;-84
2023/03/14 08:54:04;;;;;;;7.00;4.60;;;;;;;8.27;52.74;99445.85;107557;1256;59449;-83
2023/03/14 08:56:32;;;;;;;7.70;5.70;;;;;;;8.34;52.75;99449.02;107480;1256;61566;-83
2023/03/14 08:59:01;;;;;;;10.40;5.20;;;;;;;8.43;53.26;99419.42;107321;1258;72947;-81
2023/03/14 09:01:29;;;;;;;16.50;5.70;;;;;;;8.59;53.06;99428.05;106085;1259;68713;-80
2023/03/14 09:03:56;;;;;;;7.30;4.30;;;;;;;8.76;52.36;99449.69;105859;1259;70427;-79
2023/03/14 09:06:23;;;;;;;8.00;5.00;;;;;;;8.90;52.31;99436.58;105871;1259;61094;-80
2023/03/14 09:08:50;;;;;;;9.90;5.30;;;;;;;9.04;51.79;99453.26;105878;1259;61309;-80
2023/03/14 09:11:18;;;;;;;6.00;5.00;;;;;;;9.16;51.16;99465.00;105888;1259;74161;-79
2023/03/14 09:13:50;;;;;;;7.40;4.00;;;;;;;9.30;51.38;99431.16;105818;1260;71560;-80
2023/03/14 09:16:17;;;;;;;7.70;4.30;;;;;;;9.57;51.39;99435.73;106045;1259;71848;-84
2023/03/14 09:18:44;;;;;;;6.50;4.70;;;;;;;9.96;50.27;99438.96;107862;1258;61617;-81
2023/03/14 09:21:22;;;;;;;7.30;4.90;;;;;;;10.36;49.29;99431.27;109197;1258;60077;-84
2023/03/14 09:23:51;;;;;;;11.00;5.00;;;;;;;10.71;48.64;99430.87;109150;1258;72847;-82
2023/03/14 09:26:18;;;;;;;8.90;4.90;;;;;;;11.01;48.34;99425.11;109045;1258;68384;-82
2023/03/14 09:28:50;;;;;;;8.70;4.50;;;;;;;11.30;47.70;99424.39;109098;1259;71663;-81
2023/03/14 09:31:21;;;;;;;9.40;5.30;;;;;;;11.55;46.78;99449.64;109140;1257;58263;-83
2023/03/14 09:33:55;;;;;;;8.40;4.10;;;;;;;11.72;46.53;99432.02;108507;1257;59341;-85
2023/03/14 09:36:44;;;;;;;10.10;4.80;;;;;;;11.93;46.38;99408.38;109081;1259;72928;-87
2023/03/14 09:39:16;;;;;;;7.40;4.60;;;;;;;12.14;45.82;99446.86;108992;1259;70236;-85
2023/03/14 09:41:55;;;;;;;6.10;4.40;;;;;;;12.24;45.38;99442.75;108284;1258;71799;-85
2023/03/14 09:44:33;;;;;;;5.60;4.20;;;;;;;12.33;45.57;99423.58;108744;1259;61393;-85
2023/03/14 09:47:12;;;;;;;8.50;4.00;;;;;;;12.54;44.89;99414.20;108949;1256;59225;-87
2023/03/14 09:49:54;;;;;;;7.40;4.00;;;;;;;12.76;44.59;99418.58;108898;1258;71945;-85
2023/03/14 09:52:34;;;;;;;8.80;4.50;;;;;;;13.03;44.21;99398.30;107906;1259;69054;-86
2023/03/14 09:55:15;;;;;;;5.00;4.50;;;;;;;13.38;44.12;99388.06;108263;1258;71922;-88
2023/03/14 09:57:55;;;;;;;4.60;3.90;;;;;;;13.71;43.20;99428.39;108136;1259;60162;-78
2023/03/14 10:01:15;;;;;;;5.60;3.50;;;;;;;13.78;43.05;99384.16;108025;1258;60594;-87
2023/03/14 10:03:47;;;;;;;8.00;4.00;;;;;;;14.01;42.71;99408.01;108613;1251;73214;-82
2023/03/14 10:06:36;;;;;;;8.00;4.00;;;;;;;13.96;42.36;99397.30;108639;1257;70692;-88
2023/03/14 10:09:13;;;;;;;5.40;3.60;;;;;;;14.04;42.61;99397.10;108037;1259;71448;-88
2023/03/14 10:11:48;;;;;;;5.90;3.80;;;;;;;14.01;42.19;99405.55;107901;1257;59624;-84
2023/03/14 10:14:19;;;;;;;7.10;3.50;;;;;;;14.05;42.29;99380.42;109037;1257;60365;-82
2023/03/14 10:16:50;;;;;;;;;;;;;;;14.18;42.20;99389.46;109041;1257;72780;-86
2023/03/14 10:19:29;;;;;;;9.80;3.70;;;;;;;14.24;41.56;99396.52;109140;1257;70760;-84
2023/03/14 10:22:00;;;;;;;6.40;3.90;;;;;;;14.39;41.68;99356.59;108536;1263;73816;-83
2023/03/14 10:24:35;;;;;;;6.60;4.00;;;;;;;14.62;41.77;99359.81;106909;1257;60533;-84
2023/03/14 10:27:11;;;;;;;5.40;3.30;;;;;;;14.86;40.83;99359.73;107631;1256;61329;-84
2023/03/14 10:30:02;;;;;;;7.10;4.20;;;;;;;15.05;40.32;99347.05;106855;1259;73079;-88
2023/03/14 10:32:34;;;;;;;5.80;4.00;;;;;;;15.22;40.08;99372.85;107220;1264;70276;-86
2023/03/14 10:35:20;;;;;;;7.40;4.10;;;;;;;15.23;40.00;99357.66;107776;1262;72166;-83
2023/03/14 10:37:58;;;;;;;5.50;4.30;;;;;;;15.31;39.61;99364.04;107998;1257;60412;-86
2023/03/14 10:40:38;;;;;;;6.40;4.50;;;;;;;15.45;39.05;99350.95;108566;1257;60384;-82
2023/03/14 10:43:14;;;;;;;9.20;3.70;;;;;;;15.68;38.95;99325.69;107765;1257;72350;-83
2023/03/14 10:45:45;;;;;;;5.70;4.10;;;;;;;15.97;38.82;99315.16;108333;1257;70186;-81
2023/03/14 10:48:37;;;;;;;9.80;4.70;;;;;;;16.48;38.29;99309.50;107461;1257;71308;-81
2023/03/14 10:51:15;;;;;;;7.40;4.70;;;;;;;16.94;38.15;99297.84;106333;1263;60064;-88
2023/03/14 10:53:46;;;;;;;5.80;3.90;;;;;;;17.46;37.42;99323.03;106722;1257;61499;-81
2023/03/14 10:56:20;;;;;;;7.40;4.20;;;;;;;17.58;37.01;99329.05;106622;1260;73756;-79
2023/03/14 10:58:57;;;;;;;6.40;4.70;;;;;;;17.61;36.85;99345.92;106778;1256;71207;-80
2023/03/14 11:01:37;;;;;;;5.70;4.20;;;;;;;17.37;36.71;99352.61;109003;1254;72964;-84
2023/03/14 11:04:23;;;;;;;5.90;4.60;;;;;;;16.99;36.88;99326.84;106943;1256;59580;-82
2023/03/14 11:07:02;;;;;;;7.20;4.10;;;;;;;16.89;37.25;99317.42;109491;1255;60269;-76
2023/03/14 11:09:38;;;;;;;6.70;4.20;;;;;;;17.00;37.45;99307.30;108779;1256;72022;-78
2023/03/14 11:12:45;;;;;;;6.50;4.10;;;;;;;17.38;36.99;99340.80;106976;1257;69114;-78
2023/03/14 11:15:21;;;;;;;4.80;3.80;;;;;;;17.58;36.76;99313.20;106882;1256;72836;-78
2023/03/14 11:17:59;;;;;;;5.70;4.00;;;;;;;17.65;36.37;99317.16;105841;1254;60646;-79
2023/03/14 11:20:47;;;;;;;8.70;4.50;;;;;;;17.53;36.44;99290.73;105586;1257;61202;-78
2023/03/14 11:23:24;;;;;;;6.10;4.20;;;;;;;17.44;36.30;99296.31;105854;1258;72587;-79
2023/03/14 11:25:58;;;;;;;5.30;4.60;;;;;;;17.47;36.27;99287.20;105738;1257;69608;-81
2023/03/14 11:28:42;;;;;;;9.10;4.10;;;;;;;17.57;36.40;99278.52;106188;1261;73681;-83
2023/03/14 11:31:27;;;;;;;6.60;3.80;;;;;;;17.88;35.83;99334.52;106349;1257;60425;-83
2023/03/14 11:34:02;;;;;;;5.80;3.80;;;;;;;17.91;35.21;99316.17;107092;1255;59455;-83
2023/03/14 11:36:33;;;;;;;4.40;3.90;;;;;;;17.72;35.42;99281.03;108368;1257;72862;-81
2023/03/14 11:39:00;;;;;;;6.50;3.90;;;;;;;17.59;35.47;99288.18;106636;1261;69867;-84
2023/03/14 11:41:38;;;;;;;4.40;3.70;;;;;;;17.53;35.56;99280.45;107123;1259;72914;-84
2023/03/14 11:44:14;;;;;;;6.00;4.00;;;;;;;17.40;35.94;99275.30;106612;1256;60376;-83
2023/03/14 11:46:50;;;;;;;4.30;3.50;;;;;;;17.23;36.28;99283.38;106246;1256;60424;-84
2023/03/14 11:49:44;;;;;;;4.30;3.10;;;;;;;17.05;36.59;99286.06;106631;1256;72682;-82
2023/03/14 11:52:22;;;;;;;5.40;3.60;;;;;;;17.04;36.85;99259.91;108557;1255;70345;-83
2023/03/14 11:55:28;;;;;;;4.70;3.70;;;;;;;17.36;35.81;99259.61;108897;1254;73860;-83
2023/03/14 11:58:01;;;;;;;4.20;3.30;;;;;;;17.38;35.17;99260.58;108173;1254;60786;-82
2023/03/14 12:00:28;;;;;;;;;;;;;;;17.39;35.57;99249.16;109194;1256;60140;-82